Time;durP1;ratioP1;P1;durP2;ratioP2;P2;SDS_P1;SDS_P2;PMS_P1;PMS_P2;Temp;Humidity;BMP_temperature;BMP_pressure;BME280_temperature;BME280_humidity;BME280_pressure;Samples;Min_cycle;Max_cycle;Signal;HPM_P1;HPM_P2
2023/08/20 00:01:06;;;;;;;2.85;1.20;;;;;;;20.94;100.00;101814.03;6301115;28;20051;-73
2023/08/20 00:04:08;;;;;;;4.55;1.20;;;;;;;20.93;100.00;101811.44;6300631;28;20429;-73
2023/08/20 00:07:10;;;;;;;3.00;0.82;;;;;;;20.90;100.00;101817.06;6300850;28;20048;-73
2023/08/20 00:10:12;;;;;;;2.58;1.38;;;;;;;20.88;100.00;101817.16;6300731;28;20341;-73
2023/08/20 00:13:14;;;;;;;2.33;0.90;;;;;;;20.90;100.00;101819.75;6300687;28;20044;-73
2023/08/20 00:16:16;;;;;;;2.20;0.93;;;;;;;20.89;100.00;101826.91;6300762;28;20052;-73
2023/08/20 00:19:18;;;;;;;2.63;1.05;;;;;;;20.86;100.00;101828.97;6300499;28;20051;-73
2023/08/20 00:22:20;;;;;;;1.02;0.77;;;;;;;20.86;100.00;101832.47;6300599;28;20048;-73
2023/08/20 00:25:22;;;;;;;1.73;0.63;;;;;;;20.82;100.00;101830.19;6300460;28;20052;-73
2023/08/20 00:28:25;;;;;;;5.82;1.30;;;;;;;20.76;100.00;101831.53;6300506;28;20154;-73
2023/08/20 00:31:26;;;;;;;2.92;0.93;;;;;;;20.76;100.00;101835.03;6300245;28;20048;-73
2023/08/20 00:34:28;;;;;;;2.53;1.15;;;;;;;20.78;100.00;101838.44;6299686;28;20360;-73
2023/08/20 00:37:29;;;;;;;5.15;1.15;;;;;;;20.71;100.00;101842.56;6300802;28;20052;-73
2023/08/20 00:40:31;;;;;;;2.50;0.90;;;;;;;20.68;100.00;101840.13;6300312;28;20452;-73
2023/08/20 00:43:34;;;;;;;2.95;0.80;;;;;;;20.60;100.00;101849.72;6300520;28;20048;-73
2023/08/20 00:46:35;;;;;;;1.38;0.70;;;;;;;20.62;100.00;101847.75;6300075;28;20052;-73
2023/08/20 00:49:37;;;;;;;4.13;0.90;;;;;;;20.63;100.00;101853.00;6300193;28;20045;-73
2023/08/20 00:52:39;;;;;;;3.08;0.85;;;;;;;20.62;100.00;101850.44;6300369;28;20048;-73
2023/08/20 00:55:42;;;;;;;2.05;1.20;;;;;;;20.59;100.00;101848.88;6300124;28;20348;-73
2023/08/20 00:58:45;;;;;;;4.68;1.02;;;;;;;20.54;100.00;101845.72;6300037;28;20048;-73
2023/08/20 01:01:47;;;;;;;3.85;0.82;;;;;;;20.53;100.00;101844.00;6300199;28;20482;-73
2023/08/20 01:04:49;;;;;;;2.38;1.08;;;;;;;20.50;100.00;101846.91;6299977;28;20052;-73
2023/08/20 01:08:14;;;;;;;2.22;1.17;;;;;;;20.39;100.00;101836.16;6300013;28;20051;-73
2023/08/20 01:11:22;;;;;;;4.15;0.80;;;;;;;20.37;100.00;101830.97;6300292;28;20616;-73
2023/08/20 01:14:25;;;;;;;3.58;1.20;;;;;;;20.26;100.00;101830.94;6299761;28;20055;-73
2023/08/20 01:17:26;;;;;;;1.67;0.95;;;;;;;20.22;100.00;101837.50;6299943;28;20051;-73
2023/08/20 01:20:31;;;;;;;3.35;0.95;;;;;;;20.21;100.00;101828.63;6291748;28;20341;-73
2023/08/20 01:23:55;;;;;;;2.47;1.15;;;;;;;20.08;100.00;101827.03;6283997;28;20049;-73
2023/08/20 01:27:11;;;;;;;2.25;1.13;;;;;;;19.97;100.00;101830.47;6291507;28;20060;-73
2023/08/20 01:30:15;;;;;;;3.92;1.10;;;;;;;19.89;100.00;101820.38;6299765;28;20436;-73
2023/08/20 01:33:17;;;;;;;1.58;1.25;;;;;;;19.81;100.00;101817.47;6287230;28;20049;-73
2023/08/20 01:36:19;;;;;;;2.83;1.20;;;;;;;19.70;100.00;101820.91;6299501;28;20049;-73
2023/08/20 01:39:20;;;;;;;3.00;1.13;;;;;;;19.69;100.00;101826.38;6299478;28;20055;-73
2023/08/20 01:42:22;;;;;;;3.58;1.10;;;;;;;19.61;100.00;101818.94;6294462;28;20051;-73
2023/08/20 01:45:26;;;;;;;2.92;1.17;;;;;;;19.54;100.00;101825.69;6294674;28;20052;-73
2023/08/20 01:48:27;;;;;;;4.95;1.20;;;;;;;19.49;100.00;101820.69;6304121;28;20460;-73
2023/08/20 01:51:28;;;;;;;5.30;1.30;;;;;;;19.42;100.00;101832.75;6304032;28;20051;-73
2023/08/20 01:54:30;;;;;;;3.70;1.02;;;;;;;19.33;100.00;101830.75;6303922;28;20048;-73
2023/08/20 01:57:32;;;;;;;1.88;1.00;;;;;;;19.33;100.00;101822.75;6304104;28;20085;-73
2023/08/20 02:00:35;;;;;;;2.67;1.40;;;;;;;19.29;100.00;101823.09;6304006;28;20052;-73
2023/08/20 02:03:37;;;;;;;2.28;1.10;;;;;;;19.29;100.00;101839.09;6303750;28;20048;-73
2023/08/20 02:06:38;;;;;;;3.45;1.17;;;;;;;19.28;100.00;101838.25;6303789;28;20137;-73
2023/08/20 02:09:40;;;;;;;3.65;1.02;;;;;;;19.21;100.00;101842.31;6303753;28;20052;-73
2023/08/20 02:12:41;;;;;;;5.20;1.65;;;;;;;19.10;100.00;101839.56;6302863;28;20056;-72
2023/08/20 02:15:44;;;;;;;5.80;1.35;;;;;;;19.01;100.00;101846.41;6303213;28;20044;-73
2023/08/20 02:18:45;;;;;;;2.90;1.45;;;;;;;18.99;100.00;101846.53;6303582;28;20049;-73
2023/08/20 02:21:47;;;;;;;3.05;1.80;;;;;;;19.03;100.00;101844.50;6303206;28;20053;-73
2023/08/20 02:24:49;;;;;;;4.68;1.58;;;;;;;18.96;100.00;101852.06;6303230;28;20052;-73
2023/08/20 02:27:51;;;;;;;4.70;1.60;;;;;;;18.94;100.00;101858.44;6303328;28;20049;-73
2023/08/20 02:30:53;;;;;;;2.38;1.23;;;;;;;18.93;100.00;101862.94;6303308;28;20084;-73
2023/08/20 02:33:55;;;;;;;2.38;1.55;;;;;;;18.90;100.00;101857.00;6303090;28;20057;-73
2023/08/20 02:36:56;;;;;;;2.25;1.23;;;;;;;18.85;100.00;101862.66;6302905;28;20449;-73
2023/08/20 02:39:58;;;;;;;4.75;1.85;;;;;;;18.84;100.00;101862.72;6302928;28;20139;-73
2023/08/20 02:42:59;;;;;;;6.25;1.58;;;;;;;18.76;100.00;101855.28;6302950;28;20371;-73
2023/08/20 02:46:02;;;;;;;6.75;1.35;;;;;;;18.71;100.00;101841.44;6302678;28;20059;-73
2023/08/20 02:49:03;;;;;;;6.53;1.50;;;;;;;18.69;100.00;101846.88;6302734;28;20047;-73
2023/08/20 02:52:05;;;;;;;3.35;1.48;;;;;;;18.73;100.00;101847.50;6303121;28;20436;-73
2023/08/20 02:55:07;;;;;;;5.47;1.52;;;;;;;18.67;100.00;101848.78;6301619;28;20049;-73
2023/08/20 02:58:09;;;;;;;4.47;1.42;;;;;;;18.62;100.00;101850.91;6302644;28;20044;-73
2023/08/20 03:01:20;;;;;;;2.50;1.20;;;;;;;18.58;100.00;101851.22;6302456;28;20053;-73
2023/08/20 03:04:21;;;;;;;3.55;1.27;;;;;;;18.45;100.00;101843.22;6302392;28;20344;-73
2023/08/20 03:07:23;;;;;;;4.30;1.58;;;;;;;18.48;100.00;101843.00;6302344;28;20048;-72
2023/08/20 03:10:24;;;;;;;2.42;1.30;;;;;;;18.41;100.00;101847.06;6302202;28;20436;-73
2023/08/20 03:13:25;;;;;;;4.93;1.40;;;;;;;18.37;100.00;101851.72;6278692;28;20057;-73
2023/08/20 03:16:28;;;;;;;1.63;1.35;;;;;;;18.34;100.00;101848.41;6274236;28;20052;-72
2023/08/20 03:19:33;;;;;;;1.58;0.98;;;;;;;18.34;100.00;101845.75;6253935;28;20438;-72
2023/08/20 03:22:37;;;;;;;2.83;1.45;;;;;;;18.29;100.00;101850.56;6252610;28;20057;-73
2023/08/20 03:25:39;;;;;;;2.42;1.00;;;;;;;18.27;100.00;101853.31;6254742;28;20060;-73
2023/08/20 03:28:40;;;;;;;3.00;1.30;;;;;;;18.29;100.00;101854.06;6252371;28;20045;-73
2023/08/20 03:31:43;;;;;;;2.53;1.35;;;;;;;18.23;100.00;101859.81;6252174;28;20057;-73
2023/08/20 03:34:44;;;;;;;2.72;1.60;;;;;;;18.23;100.00;101862.47;6251730;28;20441;-72
2023/08/20 03:37:46;;;;;;;2.58;1.45;;;;;;;18.20;100.00;101865.31;6252109;28;20053;-72
2023/08/20 03:40:47;;;;;;;3.42;1.48;;;;;;;18.21;100.00;101864.38;6251781;28;20053;-73
2023/08/20 03:43:48;;;;;;;5.07;1.40;;;;;;;18.19;100.00;101871.63;6251940;28;20152;-73
2023/08/20 03:46:51;;;;;;;2.70;1.30;;;;;;;18.16;100.00;101875.31;6251583;28;20045;-73
2023/08/20 03:49:53;;;;;;;3.22;1.25;;;;;;;18.14;100.00;101868.41;6251791;28;20049;-73
2023/08/20 03:52:54;;;;;;;4.28;1.33;;;;;;;18.12;100.00;101872.97;6251882;28;20056;-73
2023/08/20 03:55:55;;;;;;;6.57;1.33;;;;;;;18.13;100.00;101885.34;6251347;28;20397;-73
2023/08/20 03:58:57;;;;;;;2.83;1.20;;;;;;;18.11;100.00;101872.13;6251508;28;20053;-73
2023/08/20 04:02:00;;;;;;;3.55;1.13;;;;;;;18.10;100.00;101875.75;6251402;28;20053;-72
2023/08/20 04:05:01;;;;;;;3.17;1.60;;;;;;;18.00;100.00;101878.16;6251048;28;20049;-73
2023/08/20 04:08:03;;;;;;;6.70;1.73;;;;;;;17.97;100.00;101874.84;6251194;28;20049;-72
2023/08/20 04:11:04;;;;;;;2.95;1.20;;;;;;;17.97;100.00;101881.03;6251124;28;20475;-73
2023/08/20 04:14:06;;;;;;;2.35;1.17;;;;;;;17.97;100.00;101878.34;6250959;28;20056;-73
2023/08/20 04:17:08;;;;;;;3.85;1.60;;;;;;;17.99;100.00;101891.56;6251111;28;20357;-73
2023/08/20 04:20:11;;;;;;;2.80;1.10;;;;;;;17.98;100.00;101885.38;6250808;28;20362;-73
2023/08/20 04:23:12;;;;;;;2.75;1.58;;;;;;;17.98;100.00;101885.38;6251208;28;20441;-72
2023/08/20 04:26:14;;;;;;;5.45;1.98;;;;;;;17.94;100.00;101904.31;6250497;28;20361;-73
2023/08/20 04:29:15;;;;;;;3.85;1.95;;;;;;;17.91;100.00;101894.72;6250992;28;20045;-73
2023/08/20 04:32:18;;;;;;;6.65;1.63;;;;;;;17.91;100.00;101904.53;6251024;28;20385;-73
2023/08/20 04:35:19;;;;;;;4.20;1.98;;;;;;;17.89;100.00;101909.91;6250487;28;20352;-73
2023/08/20 04:38:21;;;;;;;3.33;1.80;;;;;;;17.94;100.00;101904.31;6250754;28;20053;-73
2023/08/20 04:41:22;;;;;;;7.20;1.80;;;;;;;17.96;100.00;101921.88;6250595;28;20049;-73
2023/08/20 04:44:24;;;;;;;3.47;1.60;;;;;;;17.98;100.00;101919.09;6250562;28;20053;-74
2023/08/20 04:47:27;;;;;;;4.93;1.65;;;;;;;18.01;100.00;101932.22;6250800;28;20558;-74
2023/08/20 04:50:29;;;;;;;5.97;1.80;;;;;;;18.04;100.00;101933.84;6250702;28;20045;-73
2023/08/20 04:53:30;;;;;;;3.92;1.77;;;;;;;18.09;100.00;101924.59;6250514;28;20068;-73
2023/08/20 04:56:32;;;;;;;3.92;1.95;;;;;;;18.15;100.00;101925.97;6250402;28;20060;-73
2023/08/20 04:59:33;;;;;;;3.67;2.13;;;;;;;18.17;100.00;101932.94;6250347;28;20046;-73
2023/08/20 05:02:36;;;;;;;4.07;1.83;;;;;;;18.25;100.00;101911.09;6250616;28;20049;-73
2023/08/20 05:05:37;;;;;;;7.05;2.10;;;;;;;18.29;100.00;101901.13;6250222;28;20049;-73
2023/08/20 05:08:39;;;;;;;2.65;1.40;;;;;;;18.34;100.00;101918.47;6250299;28;20052;-74
2023/08/20 05:11:40;;;;;;;2.92;1.60;;;;;;;18.31;100.00;101913.38;6250188;28;20342;-73
2023/08/20 05:14:41;;;;;;;6.70;2.63;;;;;;;18.30;100.00;101897.50;6271397;28;20048;-73
2023/08/20 05:17:44;;;;;;;4.15;1.85;;;;;;;18.30;100.00;101877.03;6268490;28;20050;-73
2023/08/20 05:20:46;;;;;;;4.97;2.33;;;;;;;18.27;100.00;101879.94;6273424;28;20053;-73
2023/08/20 05:23:47;;;;;;;2.72;1.83;;;;;;;18.23;100.00;101884.59;6269599;28;20049;-73
2023/08/20 05:27:04;;;;;;;3.92;2.17;;;;;;;18.23;100.00;101881.94;6299689;22;20049;-74
2023/08/20 05:30:08;;;;;;;4.53;2.17;;;;;;;18.23;100.00;101876.63;6274040;28;20056;-74
2023/08/20 05:33:11;;;;;;;3.65;1.63;;;;;;;18.23;100.00;101870.44;6255021;28;20053;-75
2023/08/20 05:36:12;;;;;;;2.22;1.50;;;;;;;18.23;100.00;101876.63;6254342;28;20052;-75
2023/08/20 05:39:13;;;;;;;8.27;2.13;;;;;;;18.27;100.00;101887.06;6254780;28;20048;-75
2023/08/20 05:42:15;;;;;;;6.57;2.05;;;;;;;18.30;100.00;101893.00;6254712;28;20060;-75
2023/08/20 05:45:17;;;;;;;3.00;1.60;;;;;;;18.35;100.00;101890.91;6253516;28;20053;-75
2023/08/20 05:48:19;;;;;;;2.90;1.60;;;;;;;18.40;100.00;101902.09;6254345;28;20060;-75
2023/08/20 05:51:21;;;;;;;4.03;1.70;;;;;;;18.43;100.00;101909.00;6254330;28;20056;-74
2023/08/20 05:54:22;;;;;;;3.90;1.75;;;;;;;18.43;100.00;101904.53;6254263;28;20060;-74
2023/08/20 05:57:23;;;;;;;2.45;1.48;;;;;;;18.50;100.00;101908.50;6254586;28;20331;-74
2023/08/20 06:00:25;;;;;;;3.67;1.50;;;;;;;18.53;100.00;101910.13;6254123;28;20056;-74
2023/08/20 06:03:28;;;;;;;2.85;1.63;;;;;;;18.58;100.00;101904.47;6253965;28;20050;-74
2023/08/20 06:06:29;;;;;;;2.15;1.30;;;;;;;18.64;100.00;101906.69;6253561;28;20075;-76
2023/08/20 06:09:31;;;;;;;5.35;1.50;;;;;;;18.67;100.00;101906.50;6254115;28;20085;-74
2023/08/20 06:12:32;;;;;;;4.30;1.60;;;;;;;18.71;100.00;101916.00;6254251;28;20072;-74
2023/08/20 06:15:33;;;;;;;2.38;1.10;;;;;;;18.73;100.00;101912.28;6253587;28;20057;-75
2023/08/20 06:18:36;;;;;;;2.90;1.35;;;;;;;18.77;100.00;101906.75;6253841;28;20353;-76
2023/08/20 06:21:38;;;;;;;2.10;1.17;;;;;;;18.82;100.00;101894.81;6253916;28;20057;-74
2023/08/20 06:24:39;;;;;;;4.68;1.20;;;;;;;18.84;100.00;101902.69;6253629;28;20049;-76
2023/08/20 06:27:42;;;;;;;6.75;2.08;;;;;;;18.87;100.00;101905.16;6253540;28;20061;-75
2023/08/20 06:30:43;;;;;;;3.55;1.63;;;;;;;18.90;100.00;101905.78;6252367;28;20054;-75
2023/08/20 06:33:47;;;;;;;3.60;1.75;;;;;;;18.91;100.00;101904.81;6253681;28;20049;-75
2023/08/20 06:36:50;;;;;;;4.95;1.67;;;;;;;18.93;100.00;101915.34;6253132;28;20452;-75
2023/08/20 06:39:51;;;;;;;4.45;0.93;;;;;;;18.98;100.00;101905.22;6253488;28;20050;-75
2023/08/20 06:42:52;;;;;;;4.15;1.27;;;;;;;18.98;100.00;101918.53;6253553;28;20049;-76
2023/08/20 06:45:54;;;;;;;7.30;1.60;;;;;;;19.00;100.00;101919.31;6253099;28;20050;-74
2023/08/20 06:48:56;;;;;;;3.83;1.50;;;;;;;19.07;100.00;101920.56;6253178;28;20362;-74
2023/08/20 06:51:58;;;;;;;2.85;1.05;;;;;;;19.17;100.00;101918.13;6253423;28;20053;-75
2023/08/20 06:54:59;;;;;;;3.35;1.17;;;;;;;19.20;100.00;101916.06;6252803;28;20049;-74
2023/08/20 06:58:01;;;;;;;3.83;1.30;;;;;;;19.21;100.00;101919.59;6252757;28;20065;-75
2023/08/20 07:01:07;;;;;;;2.72;1.38;;;;;;;19.21;100.00;101914.25;6253015;28;20053;-74
2023/08/20 07:04:10;;;;;;;5.18;1.42;;;;;;;19.21;100.00;101908.94;6256787;28;20438;-74
2023/08/20 07:07:14;;;;;;;4.45;1.92;;;;;;;19.22;100.00;101906.19;6260993;28;20335;-75
2023/08/20 07:10:15;;;;;;;3.35;1.17;;;;;;;19.29;100.00;101914.56;6252547;28;20050;-75
2023/08/20 07:13:17;;;;;;;4.85;1.15;;;;;;;19.43;100.00;101917.09;6252576;28;20052;-75
2023/08/20 07:16:18;;;;;;;4.55;1.20;;;;;;;19.47;100.00;101915.06;6252200;28;20062;-75
2023/08/20 07:19:21;;;;;;;5.53;1.48;;;;;;;19.49;100.00;101916.66;6252545;28;20042;-76
2023/08/20 07:22:22;;;;;;;7.55;1.55;;;;;;;19.55;100.00;101922.53;6252127;28;20654;-75
2023/08/20 07:25:24;;;;;;;3.03;1.30;;;;;;;19.61;100.00;101912.28;6252003;28;20052;-75
2023/08/20 07:28:56;;;;;;;4.22;1.27;;;;;;;19.69;100.00;101923.25;6252152;28;20056;-75
2023/08/20 07:31:48;;;;;;;3.53;1.17;;;;;;;19.72;100.00;101933.69;6251911;28;20183;-75
2023/08/20 07:34:51;;;;;;;4.25;1.30;;;;;;;19.75;100.00;101928.13;6251767;28;20069;-75
2023/08/20 07:37:52;;;;;;;4.60;1.23;;;;;;;19.75;100.00;101932.59;6251925;28;20049;-75
2023/08/20 07:40:54;;;;;;;3.92;1.30;;;;;;;19.75;100.00;101933.44;6251559;28;20053;-75
2023/08/20 07:43:55;;;;;;;4.80;1.50;;;;;;;19.78;100.00;101932.41;6251978;28;20076;-79
2023/08/20 07:46:57;;;;;;;3.75;1.60;;;;;;;19.81;100.00;101931.31;6250626;28;20045;-79
2023/08/20 07:50:00;;;;;;;5.90;1.40;;;;;;;19.83;100.00;101926.72;6245345;28;20037;-73
2023/08/20 07:53:02;;;;;;;2.90;1.10;;;;;;;19.90;100.00;101925.31;6244403;28;20183;-74
2023/08/20 07:56:03;;;;;;;1.48;1.00;;;;;;;19.89;100.00;101928.91;6251100;28;20079;-72
2023/08/20 07:59:05;;;;;;;2.05;1.20;;;;;;;19.91;100.00;101921.66;6241891;28;20051;-80
2023/08/20 08:02:06;;;;;;;2.42;1.05;;;;;;;19.95;100.00;101925.81;6263553;28;20041;-76
2023/08/20 08:05:10;;;;;;;7.45;1.98;;;;;;;19.99;100.00;101929.97;6250975;28;20346;-76
2023/08/20 08:08:11;;;;;;;3.92;1.67;;;;;;;20.02;100.00;101933.22;6249319;28;20041;-74
2023/08/20 08:11:12;;;;;;;2.63;1.35;;;;;;;20.08;100.00;101931.94;6246129;28;20049;-76
2023/08/20 08:14:14;;;;;;;7.28;2.30;;;;;;;20.17;100.00;101933.94;6248073;28;20412;-75
2023/08/20 08:17:16;;;;;;;6.40;2.22;;;;;;;20.28;100.00;101933.13;6250230;28;20456;-73
2023/08/20 08:20:18;;;;;;;7.03;1.80;;;;;;;20.34;100.00;101934.47;6250971;28;20042;-73
2023/08/20 08:23:20;;;;;;;6.20;2.13;;;;;;;20.40;100.00;101939.34;6254527;28;20052;-74
2023/08/20 08:26:21;;;;;;;5.28;1.65;;;;;;;20.44;100.00;101943.50;6249062;28;20357;-73
2023/08/20 08:29:23;;;;;;;2.22;1.77;;;;;;;20.49;100.00;101939.53;6250624;28;20049;-74
2023/08/20 08:32:24;;;;;;;5.18;2.10;;;;;;;20.55;100.00;101940.88;6248899;28;20443;-74
2023/08/20 08:35:27;;;;;;;5.65;2.15;;;;;;;20.63;100.00;101942.97;6247738;28;20080;-74
2023/08/20 08:38:28;;;;;;;5.68;3.00;;;;;;;20.82;100.00;101935.22;6249739;28;20056;-74
2023/08/20 08:41:32;;;;;;;4.63;2.10;;;;;;;20.83;100.00;101944.94;6249628;28;20365;-74
2023/08/20 08:44:33;;;;;;;3.15;1.92;;;;;;;20.83;100.00;101936.94;6248590;28;20874;-73
2023/08/20 08:47:35;;;;;;;6.50;2.38;;;;;;;20.83;100.00;101934.25;6250515;28;20041;-74
2023/08/20 08:50:38;;;;;;;5.80;2.53;;;;;;;20.89;100.00;101935.59;6249551;28;20045;-72
2023/08/20 08:53:39;;;;;;;5.43;2.38;;;;;;;20.95;100.00;101933.31;6249771;28;20434;-73
2023/08/20 08:56:41;;;;;;;3.90;2.15;;;;;;;21.02;100.00;101936.34;6249486;28;20053;-71
2023/08/20 08:59:43;;;;;;;2.90;2.33;;;;;;;21.13;100.00;101936.34;6249233;28;20038;-71
2023/08/20 09:02:44;;;;;;;6.10;2.25;;;;;;;21.15;100.00;101939.75;6248543;28;20049;-71
2023/08/20 09:05:51;;;;;;;5.60;2.50;;;;;;;21.23;100.00;101947.16;6248791;28;20484;-71
2023/08/20 09:09:05;;;;;;;8.40;2.83;;;;;;;21.33;100.00;101939.28;6250279;28;20050;-71
2023/08/20 09:12:13;;;;;;;5.10;2.83;;;;;;;21.55;100.00;101943.78;6249084;28;20048;-71
2023/08/20 09:15:15;;;;;;;4.55;2.65;;;;;;;21.70;100.00;101939.84;6247276;28;20049;-72
2023/08/20 09:18:16;;;;;;;5.50;2.50;;;;;;;21.76;100.00;101942.88;6244756;28;20056;-72
2023/08/20 09:21:19;;;;;;;3.95;2.65;;;;;;;21.90;100.00;101936.41;6249889;28;20052;-71
2023/08/20 09:24:32;;;;;;;4.15;2.47;;;;;;;21.92;100.00;101945.16;6248781;28;20057;-72
2023/08/20 09:27:40;;;;;;;3.85;2.15;;;;;;;21.94;100.00;101940.53;6245409;28;20052;-71
2023/08/20 09:30:55;;;;;;;4.80;2.97;;;;;;;21.97;100.00;101948.28;6249353;28;20517;-70
2023/08/20 09:33:57;;;;;;;5.07;2.70;;;;;;;21.91;100.00;101943.44;6246464;28;20133;-70
2023/08/20 09:37:01;;;;;;;4.47;2.42;;;;;;;22.05;100.00;101934.28;6245913;28;20052;-71
2023/08/20 09:40:03;;;;;;;9.50;3.08;;;;;;;22.15;100.00;101937.06;6253157;28;20128;-72
2023/08/20 09:43:08;;;;;;;5.40;2.90;;;;;;;22.18;100.00;101940.34;6250385;28;20117;-71
2023/08/20 09:46:11;;;;;;;7.72;3.28;;;;;;;22.27;100.00;101936.06;6247896;28;20140;-71
2023/08/20 09:49:17;;;;;;;7.22;2.92;;;;;;;22.28;100.00;101929.72;6241624;28;20056;-71
2023/08/20 09:52:29;;;;;;;4.93;2.42;;;;;;;22.22;100.00;101919.53;6247267;28;20065;-71
2023/08/20 09:55:34;;;;;;;3.60;1.75;;;;;;;22.14;100.00;101920.16;6248578;28;20049;-72
2023/08/20 09:58:37;;;;;;;4.38;2.20;;;;;;;22.21;100.00;101920.47;6249346;28;20408;-71
2023/08/20 10:01:39;;;;;;;3.97;2.30;;;;;;;22.40;100.00;101917.13;6248984;28;20350;-71
2023/08/20 10:04:43;;;;;;;3.33;2.08;;;;;;;22.51;100.00;101928.59;6250392;28;20323;-71
2023/08/20 10:07:46;;;;;;;3.53;2.08;;;;;;;22.54;100.00;101936.38;6253285;28;20489;-71
2023/08/20 10:10:48;;;;;;;4.13;2.67;;;;;;;22.73;100.00;101927.63;6253439;28;20041;-71
2023/08/20 10:13:49;;;;;;;4.00;2.10;;;;;;;22.76;100.00;101924.69;6254173;28;20045;-71
2023/08/20 10:16:53;;;;;;;7.18;2.35;;;;;;;22.77;100.00;101926.38;6253181;28;20449;-72
2023/08/20 10:19:57;;;;;;;5.47;2.13;;;;;;;22.80;100.00;101930.63;6253627;28;20050;-72
2023/08/20 10:23:04;;;;;;;4.82;2.20;;;;;;;22.82;100.00;101923.31;6252010;28;20052;-71
2023/08/20 10:26:09;;;;;;;2.17;1.70;;;;;;;22.76;100.00;101921.16;6248236;28;20456;-71
2023/08/20 10:29:36;;;;;;;4.80;1.75;;;;;;;22.80;100.00;101922.59;6250646;28;20049;-72
2023/08/20 10:32:49;;;;;;;5.05;1.92;;;;;;;22.81;100.00;101918.94;6252106;28;20052;-71
2023/08/20 10:35:50;;;;;;;5.78;2.25;;;;;;;22.87;100.00;101922.91;6251821;28;20057;-69
2023/08/20 10:38:55;;;;;;;3.20;2.22;;;;;;;22.84;100.00;101924.00;6264366;28;20044;-73
2023/08/20 10:42:10;;;;;;;2.80;2.22;;;;;;;22.87;100.00;101928.25;6261972;28;20357;-73
2023/08/20 10:45:12;;;;;;;5.75;2.03;;;;;;;22.90;100.00;101930.72;6262263;28;20476;-70
2023/08/20 10:48:13;;;;;;;3.45;1.70;;;;;;;22.98;100.00;101928.19;6263138;28;20124;-72
2023/08/20 10:51:16;;;;;;;4.20;2.10;;;;;;;23.22;100.00;101934.09;6252371;28;20049;-72
2023/08/20 10:54:19;;;;;;;2.75;1.95;;;;;;;23.20;100.00;101932.53;6252366;28;20053;-70
2023/08/20 10:57:21;;;;;;;4.28;1.90;;;;;;;23.28;100.00;101932.72;6252762;28;20057;-70
2023/08/20 11:00:23;;;;;;;3.70;2.13;;;;;;;23.45;100.00;101931.22;6252336;28;20053;-70
2023/08/20 11:03:24;;;;;;;2.45;1.70;;;;;;;23.40;100.00;101928.94;6252519;28;20049;-70
2023/08/20 11:06:31;;;;;;;3.38;1.85;;;;;;;23.58;100.00;101928.31;6252562;28;20045;-70
2023/08/20 11:09:35;;;;;;;3.15;1.63;;;;;;;23.50;100.00;101920.94;6252719;28;20064;-70
2023/08/20 11:12:37;;;;;;;2.53;1.67;;;;;;;23.38;100.00;101927.38;6252556;28;20052;-70
2023/08/20 11:15:39;;;;;;;3.53;1.90;;;;;;;23.29;100.00;101921.84;6252071;28;20057;-70
2023/08/20 11:18:41;;;;;;;5.43;2.67;;;;;;;23.46;100.00;101927.56;6252254;28;20057;-70
2023/08/20 11:21:43;;;;;;;6.90;2.10;;;;;;;23.56;100.00;101923.03;6252161;28;20041;-70
2023/08/20 11:24:46;;;;;;;5.95;2.28;;;;;;;23.86;100.00;101927.53;6252163;28;20057;-71
2023/08/20 11:27:48;;;;;;;4.20;1.75;;;;;;;24.00;100.00;101923.56;6308551;22;20056;-72
2023/08/20 11:30:50;;;;;;;4.15;1.70;;;;;;;24.11;100.00;101923.41;6300656;28;20110;-73
2023/08/20 11:33:51;;;;;;;4.05;1.67;;;;;;;24.21;100.00;101926.09;6301659;28;20455;-73
2023/08/20 11:36:53;;;;;;;1.90;1.55;;;;;;;24.21;100.00;101918.03;6295970;28;20184;-73
2023/08/20 11:39:56;;;;;;;2.20;1.70;;;;;;;24.46;100.00;101917.50;6276514;28;20056;-73
2023/08/20 11:42:58;;;;;;;3.22;1.73;;;;;;;24.59;100.00;101917.19;6276444;28;20056;-73
2023/08/20 11:45:59;;;;;;;3.53;1.63;;;;;;;24.96;100.00;101930.69;6274028;28;20349;-73
2023/08/20 11:49:04;;;;;;;4.45;1.70;;;;;;;25.28;100.00;101924.06;6271990;28;20050;-73
2023/08/20 11:52:05;;;;;;;2.53;1.70;;;;;;;25.46;100.00;101918.72;6270084;28;20497;-73
2023/08/20 11:55:09;;;;;;;3.47;2.17;;;;;;;25.10;100.00;101926.69;6275140;28;20069;-73
2023/08/20 11:58:13;;;;;;;3.83;1.65;;;;;;;24.82;100.00;101914.16;6268430;28;20436;-72
2023/08/20 12:01:14;;;;;;;2.95;1.67;;;;;;;24.84;100.00;101918.38;6262791;28;20071;-73
2023/08/20 12:04:16;;;;;;;1.77;1.48;;;;;;;24.77;100.00;101920.84;6275970;28;20053;-73
2023/08/20 12:07:17;;;;;;;3.92;1.73;;;;;;;24.85;100.00;101913.88;6276179;28;20049;-73
2023/08/20 12:10:24;;;;;;;1.85;1.65;;;;;;;25.09;100.00;101916.94;6275811;28;20483;-74
2023/08/20 12:13:25;;;;;;;2.88;1.60;;;;;;;25.08;100.00;101917.09;6275889;28;20052;-73
2023/08/20 12:16:27;;;;;;;3.05;1.70;;;;;;;25.40;100.00;101911.25;6275431;28;20053;-73
2023/08/20 12:19:28;;;;;;;3.00;1.75;;;;;;;25.62;100.00;101913.53;6278275;28;20466;-73
2023/08/20 12:22:29;;;;;;;2.08;1.52;;;;;;;25.42;100.00;101904.72;6280311;28;20047;-73
2023/08/20 12:25:35;;;;;;;4.15;1.90;;;;;;;25.28;100.00;101907.91;6274673;28;20052;-73
2023/08/20 12:28:36;;;;;;;2.60;1.48;;;;;;;25.33;100.00;101907.47;6272886;28;20040;-73
2023/08/20 12:31:39;;;;;;;6.38;1.60;;;;;;;25.60;100.00;101899.38;6269985;28;20048;-73
2023/08/20 12:34:40;;;;;;;1.50;1.40;;;;;;;25.86;100.00;101901.34;6274917;28;20387;-73
2023/08/20 12:37:41;;;;;;;5.82;1.63;;;;;;;25.96;100.00;101889.50;6275732;28;20049;-73
2023/08/20 12:40:44;;;;;;;5.90;1.80;;;;;;;26.17;100.00;101886.47;6275155;28;20048;-73
2023/08/20 12:43:45;;;;;;;4.60;1.60;;;;;;;26.68;100.00;101886.69;6275357;28;20075;-73
2023/08/20 12:46:47;;;;;;;2.53;1.42;;;;;;;26.78;100.00;101880.16;6275082;28;20072;-73
2023/08/20 12:49:48;;;;;;;1.95;1.70;;;;;;;26.75;100.00;101880.50;6275177;28;20049;-73
2023/08/20 12:52:50;;;;;;;1.52;1.40;;;;;;;26.37;100.00;101887.13;6275212;28;20041;-73
2023/08/20 12:55:53;;;;;;;3.08;1.30;;;;;;;26.14;100.00;101885.94;6274814;28;20057;-74
2023/08/20 12:58:54;;;;;;;1.67;1.38;;;;;;;26.06;100.00;101887.56;6275360;28;20049;-73
2023/08/20 13:01:56;;;;;;;4.05;1.50;;;;;;;25.95;100.00;101889.66;6275027;28;20045;-73
2023/08/20 13:04:58;;;;;;;3.90;1.60;;;;;;;25.62;100.00;101880.34;6274994;28;20064;-74
2023/08/20 13:08:00;;;;;;;2.08;1.50;;;;;;;25.38;100.00;101875.56;6275000;28;20056;-73
2023/08/20 13:11:04;;;;;;;2.58;1.60;;;;;;;25.20;100.00;101878.22;6275683;28;20048;-73
2023/08/20 13:14:06;;;;;;;1.65;1.40;;;;;;;25.11;100.00;101876.41;6274891;28;20069;-73
2023/08/20 13:17:09;;;;;;;20.05;11.90;;;;;;;25.29;100.00;101869.25;6275070;28;20052;-74
2023/08/20 13:20:11;;;;;;;2.83;1.88;;;;;;;25.91;100.00;101864.03;6274947;28;20099;-73
2023/08/20 13:23:13;;;;;;;3.78;1.65;;;;;;;26.32;100.00;101865.19;6275004;28;20441;-73
2023/08/20 13:26:16;;;;;;;4.32;2.25;;;;;;;26.52;100.00;101866.69;6274665;28;20053;-73
2023/08/20 13:29:17;;;;;;;2.67;1.65;;;;;;;26.90;100.00;101871.81;6274806;28;20052;-73
2023/08/20 13:32:18;;;;;;;2.15;1.30;;;;;;;27.10;100.00;101873.28;6274917;28;20049;-73
2023/08/20 13:35:20;;;;;;;2.15;1.30;;;;;;;26.99;100.00;101870.84;6274521;28;20360;-73
2023/08/20 13:38:22;;;;;;;2.33;1.30;;;;;;;26.90;100.00;101866.41;6275030;28;20053;-73
2023/08/20 13:41:24;;;;;;;1.77;1.23;;;;;;;27.26;100.00;101865.25;6278681;28;20099;-73
2023/08/20 13:44:26;;;;;;;1.40;1.17;;;;;;;27.36;100.00;101865.09;6279411;28;20060;-73
2023/08/20 13:47:27;;;;;;;2.75;1.65;;;;;;;27.79;100.00;101866.72;6278147;28;20064;-73
2023/08/20 13:50:31;;;;;;;2.38;1.40;;;;;;;27.71;100.00;101858.59;6278984;28;20044;-72
2023/08/20 13:53:32;;;;;;;1.15;1.00;;;;;;;27.48;100.00;101863.78;6279314;28;20053;-72
2023/08/20 13:56:35;;;;;;;3.58;1.40;;;;;;;27.30;100.00;101863.06;6277674;28;20052;-73
2023/08/20 13:59:36;;;;;;;4.88;1.60;;;;;;;27.14;100.00;101861.16;6282532;28;20055;-73